Main page
METAR-TAF:

METAR-TAF

Airports :

Pisa International Airport

Pisa, Italy

latitude: 43-41N, longitude: 010-23E, elevation: 2 m

Current weather observation

The report was made 48 minutes ago, at 12:15 UTC
Wind 7 kt from the West
Temperature 27°C
Humidity 48%
Pressure 1017 hPa
Visibility 10 km or more
no clouds below 1500 m and no cumulonimbus

METAR: LIRP 171215Z 26007KT CAVOK 27/15 Q1017 NOSIG

Time: 15:03 (13:03 UTC)

Forecast

The report was made 2 hours and 3 minutes ago, at 11:00 UTC
Forecast valid from 17 at 12 UTC to 18 at 12 UTC
Wind 5 kt from variable directions
Visibility 10 km or more
no clouds below 1500 m and no cumulonimbus

TAF: LIRP 171100Z 1712/1812 VRB05KT CAVOK

Weather observations and forecasts of more than 4000 airports (METAR and TAF reports).

The available stations are represented by yellow and red dots on the map.

Hover mouse over dot to see the name of the station.

Then click to see weather observations and forecasts.

To change the map : click on the green buttons with a black cross to zoom in, on the green button with a dash to zoom out, or on the green arrows for adjacent maps.


METAR-TAF: